createdAt,value
2023-01-11T00:01:57.064Z,100665.25
2023-01-11T00:04:30.753Z,100665.44
2023-01-11T00:06:59.112Z,100664.60
2023-01-11T00:09:27.545Z,100664.32
2023-01-11T00:11:56.119Z,100671.77
2023-01-11T00:14:24.397Z,100665.79
2023-01-11T00:16:52.691Z,100663.41
2023-01-11T00:19:20.986Z,100664.62
2023-01-11T00:21:50.399Z,100670.06
2023-01-11T00:24:18.899Z,100666.94
2023-01-11T00:26:47.761Z,100663.52
2023-01-11T00:29:16.189Z,100662.69
2023-01-11T00:31:44.501Z,100661.34
2023-01-11T00:34:12.808Z,100664.45
2023-01-11T00:36:42.293Z,100664.11
2023-01-11T00:39:10.490Z,100664.31
2023-01-11T00:41:58.028Z,100665.17
2023-01-11T00:44:46.034Z,100658.48
2023-01-11T00:47:35.111Z,100658.30
2023-01-11T00:50:04.232Z,100657.13
2023-01-11T00:52:32.901Z,100654.53
2023-01-11T00:55:01.729Z,100655.39
2023-01-11T00:57:30.580Z,100654.17
2023-01-11T00:59:59.048Z,100651.27
2023-01-11T01:02:27.532Z,100653.67
2023-01-11T01:04:55.978Z,100649.08
2023-01-11T01:07:24.305Z,100649.95
2023-01-11T01:09:53.284Z,100647.55
2023-01-11T01:12:40.859Z,100651.00
2023-01-11T01:15:09.842Z,100651.34
2023-01-11T01:17:38.176Z,100646.91
2023-01-11T01:20:07.547Z,100646.71
2023-01-11T01:22:35.818Z,100642.58
2023-01-11T01:25:05.174Z,100649.30
2023-01-11T01:27:34.409Z,100647.29
2023-01-11T01:30:03.921Z,100647.65
2023-01-11T01:32:34.447Z,100644.23
2023-01-11T01:35:03.510Z,100646.48
2023-01-11T01:37:31.957Z,100645.45
2023-01-11T01:40:00.198Z,100644.42
2023-01-11T01:42:29.061Z,100638.96
2023-01-11T01:44:58.136Z,100638.30
2023-01-11T01:47:54.024Z,100637.46
2023-01-11T01:50:36.524Z,100634.73
2023-01-11T01:53:11.745Z,100629.95
2023-01-11T01:55:45.691Z,100630.31
2023-01-11T01:58:18.988Z,100632.73
2023-01-11T02:00:47.486Z,100626.36
2023-01-11T02:03:22.657Z,100624.83
2023-01-11T02:05:53.579Z,100619.50
2023-01-11T02:08:33.644Z,100615.72
2023-01-11T02:11:04.316Z,100609.70
2023-01-11T02:13:46.298Z,100607.47
2023-01-11T02:16:15.375Z,100606.77
2023-01-11T02:18:44.250Z,100602.64
2023-01-11T02:21:31.099Z,100595.44
2023-01-11T02:24:31.064Z,100598.54
2023-01-11T02:27:31.281Z,100593.23
2023-01-11T02:30:24.187Z,100588.66
2023-01-11T02:33:22.849Z,100582.89
2023-01-11T02:36:13.318Z,100582.27
2023-01-11T02:39:00.108Z,100575.46
2023-01-11T02:42:16.155Z,100573.44
2023-01-11T02:45:02.097Z,100567.82
2023-01-11T02:47:50.215Z,100571.79
2023-01-11T02:50:31.387Z,100562.93
2023-01-11T02:53:13.369Z,100562.27
2023-01-11T02:55:48.517Z,100557.01
2023-01-11T02:58:20.273Z,100563.88
2023-01-11T03:00:49.557Z,100562.02
2023-01-11T03:03:20.242Z,100561.89
2023-01-11T03:05:54.246Z,100558.14
2023-01-11T03:08:50.900Z,100555.25
2023-01-11T03:12:13.596Z,100552.89
2023-01-11T03:14:59.659Z,100550.34
2023-01-11T03:17:55.983Z,100546.42
2023-01-11T03:20:31.176Z,100539.42
2023-01-11T03:23:33.897Z,100539.95
2023-01-11T03:26:16.005Z,100538.77
2023-01-11T03:29:09.081Z,100537.08
2023-01-11T03:31:45.275Z,100531.96
2023-01-11T03:34:32.092Z,100527.67
2023-01-11T03:37:08.275Z,100525.13
2023-01-11T03:39:50.878Z,100522.23
2023-01-11T03:42:22.787Z,100514.55
2023-01-11T03:44:55.596Z,100516.92
2023-01-11T03:47:28.074Z,100511.29
2023-01-11T03:50:08.455Z,100503.95
2023-01-11T03:52:42.555Z,100499.85
2023-01-11T03:55:15.459Z,100499.69
2023-01-11T03:57:52.773Z,100500.03
2023-01-11T04:00:47.014Z,100496.78
2023-01-11T04:03:16.101Z,100494.58
2023-01-11T04:05:48.112Z,100492.17
2023-01-11T04:08:16.596Z,100488.59
2023-01-11T04:10:45.002Z,100485.68
2023-01-11T04:13:13.384Z,100483.98
2023-01-11T04:15:41.960Z,100481.08
2023-01-11T04:18:10.906Z,100481.08
2023-01-11T04:20:41.061Z,100481.26
2023-01-11T04:23:10.685Z,100480.58
2023-01-11T04:25:39.096Z,100474.43
2023-01-11T04:28:07.407Z,100467.76
2023-01-11T04:30:36.275Z,100465.02
2023-01-11T04:33:04.733Z,100458.86
2023-01-11T04:35:33.153Z,100448.61
2023-01-11T04:38:01.574Z,100445.53
2023-01-11T04:40:29.971Z,100442.96
2023-01-11T04:43:02.534Z,100443.32
2023-01-11T04:45:31.187Z,100438.52
2023-01-11T04:48:00.042Z,100430.98
2023-01-11T04:50:28.484Z,100427.23
2023-01-11T04:52:59.474Z,100422.45
2023-01-11T04:55:28.438Z,100416.63
2023-01-11T04:57:57.541Z,100411.34
2023-01-11T05:00:51.307Z,100407.75
2023-01-11T05:03:19.935Z,100402.81
2023-01-11T05:05:59.459Z,100404.70
2023-01-11T05:08:30.118Z,100404.54
2023-01-11T05:11:02.599Z,100403.34
2023-01-11T05:13:44.361Z,100402.83
2023-01-11T05:16:14.362Z,100406.92
2023-01-11T05:18:47.366Z,100406.09
2023-01-11T05:21:19.970Z,100397.54
2023-01-11T05:23:49.479Z,100391.73
2023-01-11T05:26:24.838Z,100391.05
2023-01-11T05:28:55.894Z,100384.73
2023-01-11T05:31:25.112Z,100383.72
2023-01-11T05:33:54.202Z,100379.97
2023-01-11T05:36:24.526Z,100376.88
2023-01-11T05:38:55.125Z,100378.58
2023-01-11T05:41:26.034Z,100379.60
2023-01-11T05:44:14.323Z,100377.55
2023-01-11T05:46:44.925Z,100371.07
2023-01-11T05:49:14.324Z,100368.50
2023-01-11T05:51:43.902Z,100370.57
2023-01-11T05:54:14.712Z,100370.58
2023-01-11T05:56:43.360Z,100370.91
2023-01-11T05:59:12.379Z,100368.01
2023-01-11T06:01:40.953Z,100367.31
2023-01-11T06:04:09.509Z,100361.69
2023-01-11T06:06:38.850Z,100360.98
2023-01-11T06:09:07.860Z,100359.12
2023-01-11T06:11:36.959Z,100353.98
2023-01-11T06:14:05.287Z,100351.42
2023-01-11T06:16:33.836Z,100350.55
2023-01-11T06:19:02.295Z,100353.64
2023-01-11T06:21:31.215Z,100353.98
2023-01-11T06:24:00.161Z,100363.53
2023-01-11T06:26:28.800Z,100369.16
2023-01-11T06:28:58.114Z,100368.47
2023-01-11T06:31:26.650Z,100365.57
2023-01-11T06:33:55.596Z,100367.62
2023-01-11T06:36:24.519Z,100368.81
2023-01-11T06:38:54.808Z,100367.92
2023-01-11T06:41:23.376Z,100372.55
2023-01-11T06:43:51.901Z,100378.88
2023-01-11T06:46:21.072Z,100376.45
2023-01-11T06:48:50.157Z,100367.89
2023-01-11T06:51:19.067Z,100358.13
2023-01-11T06:53:47.920Z,100353.66
2023-01-11T06:56:21.082Z,100343.56
2023-01-11T06:59:02.014Z,100342.36
2023-01-11T07:01:32.608Z,100332.60
2023-01-11T07:04:01.488Z,100326.11
2023-01-11T07:06:32.349Z,100319.27
2023-01-11T07:09:00.738Z,100317.89
2023-01-11T07:11:29.132Z,100316.86
2023-01-11T07:13:57.431Z,100323.84
2023-01-11T07:16:25.871Z,100324.16
2023-01-11T07:18:54.439Z,100325.70
2023-01-11T07:21:22.920Z,100328.58
2023-01-11T07:23:52.436Z,100334.71
2023-01-11T07:26:22.154Z,100334.69
2023-01-11T07:28:50.622Z,100334.81
2023-01-11T07:31:19.584Z,100335.61
2023-01-11T07:33:48.557Z,100341.00
2023-01-11T07:36:17.586Z,100341.96
2023-01-11T07:38:47.644Z,100341.02
2023-01-11T07:41:37.214Z,100337.62
2023-01-11T07:44:07.559Z,100337.30
2023-01-11T07:46:36.132Z,100336.02
2023-01-11T07:49:04.755Z,100341.86
2023-01-11T07:51:33.558Z,100342.14
2023-01-11T07:54:04.108Z,100346.43
2023-01-11T07:56:33.131Z,100340.39
2023-01-11T07:59:01.535Z,100339.48
2023-01-11T08:01:30.077Z,100336.50
2023-01-11T08:03:58.418Z,100333.70
2023-01-11T08:06:27.320Z,100334.90
2023-01-11T08:08:55.848Z,100328.61
2023-01-11T08:11:43.453Z,100329.56
2023-01-11T08:14:30.929Z,100327.49
2023-01-11T08:16:59.391Z,100322.98
2023-01-11T08:19:28.024Z,100324.38
2023-01-11T08:21:56.923Z,100321.70
2023-01-11T08:24:26.415Z,100320.76
2023-01-11T08:26:55.503Z,100323.63
2023-01-11T08:29:25.776Z,100317.48
2023-01-11T08:31:54.165Z,100305.45
2023-01-11T08:34:22.790Z,100312.33
2023-01-11T08:36:51.216Z,100309.52
2023-01-11T08:39:19.639Z,100305.77
2023-01-11T08:41:48.648Z,100302.34
2023-01-11T08:44:25.446Z,100297.86
2023-01-11T08:47:02.600Z,100296.48
2023-01-11T08:49:31.403Z,100298.45
2023-01-11T08:51:59.979Z,100298.13
2023-01-11T08:54:28.457Z,100297.29
2023-01-11T08:56:57.541Z,100288.51
2023-01-11T08:59:34.158Z,100290.76
2023-01-11T09:02:03.109Z,100291.41
2023-01-11T09:04:33.381Z,100296.17
2023-01-11T09:07:02.675Z,100298.04
2023-01-11T09:09:31.827Z,100293.17
2023-01-11T09:12:05.611Z,100288.14
2023-01-11T09:14:35.068Z,100281.57
2023-01-11T09:17:03.648Z,100287.33
2023-01-11T09:19:33.867Z,100282.11
2023-01-11T09:22:03.714Z,100279.63
2023-01-11T09:24:32.696Z,100280.77
2023-01-11T09:27:01.830Z,100281.72
2023-01-11T09:29:31.357Z,100278.89
2023-01-11T09:31:59.906Z,100276.72
2023-01-11T09:34:28.645Z,100270.08
2023-01-11T09:37:00.258Z,100267.77
2023-01-11T09:39:29.349Z,100263.69
2023-01-11T09:42:40.933Z,100260.46
2023-01-11T09:45:24.892Z,100254.11
2023-01-11T09:48:05.185Z,100249.67
2023-01-11T09:50:42.074Z,100248.16
2023-01-11T09:53:35.873Z,100241.86
2023-01-11T09:56:12.483Z,100232.66
2023-01-11T09:59:19.517Z,100230.48
2023-01-11T10:01:57.861Z,100225.73
2023-01-11T10:04:59.533Z,100219.66
2023-01-11T10:18:22.097Z,100215.63
2023-01-11T10:18:39.450Z,100211.42
2023-01-11T10:20:05.848Z,100210.05
2023-01-11T10:22:43.484Z,100202.31
2023-01-11T10:25:35.245Z,100199.30
2023-01-11T10:28:39.512Z,100191.29
2023-01-11T10:31:47.837Z,100185.31
2023-01-11T10:35:00.948Z,100191.27
2023-01-11T10:37:54.460Z,100189.15
2023-01-11T10:41:00.819Z,100183.94
2023-01-11T10:43:33.114Z,100178.66
2023-01-11T10:46:08.782Z,100173.39
2023-01-11T10:48:43.567Z,100171.02
2023-01-11T10:51:35.918Z,100163.46
2023-01-11T10:54:18.516Z,100159.52
2023-01-11T10:57:09.173Z,100153.33
2023-01-11T11:00:17.266Z,100140.12
2023-01-11T11:03:51.328Z,100138.77
2023-01-11T11:06:44.661Z,100140.48
2023-01-11T11:09:24.223Z,100145.57
2023-01-11T11:12:01.812Z,100145.80
2023-01-11T11:14:44.166Z,100141.27
2023-01-11T11:17:32.146Z,100132.18
2023-01-11T11:20:05.440Z,100131.06
2023-01-11T11:22:34.550Z,100123.40
2023-01-11T11:25:13.611Z,100116.48
2023-01-11T11:27:53.039Z,100109.25
2023-01-11T11:30:34.365Z,100106.11
2023-01-11T11:33:08.173Z,100097.67
2023-01-11T11:35:42.780Z,100093.88
2023-01-11T11:38:32.759Z,100081.96
2023-01-11T11:41:10.267Z,100081.02
2023-01-11T11:43:44.337Z,100076.14
2023-01-11T11:46:20.558Z,100069.36
2023-01-11T11:49:17.839Z,100070.55
2023-01-11T11:51:48.381Z,100063.45
2023-01-11T11:54:31.391Z,100064.83
2023-01-11T11:57:22.720Z,100063.08
2023-01-11T12:00:15.292Z,100054.36
2023-01-11T12:02:51.303Z,100059.81
2023-01-11T12:05:23.095Z,100057.16
2023-01-11T12:07:55.902Z,100051.61
2023-01-11T12:10:27.968Z,100043.66
2023-01-11T12:12:58.427Z,100039.52
2023-01-11T12:15:35.072Z,100043.46
2023-01-11T12:18:27.236Z,100035.30
2023-01-11T12:21:00.636Z,100029.49
2023-01-11T12:23:29.829Z,100028.89
2023-01-11T12:26:19.827Z,100026.82
2023-01-11T12:29:24.982Z,100019.23
2023-01-11T12:32:15.915Z,100014.63
2023-01-11T12:35:14.410Z,100012.70
2023-01-11T12:38:09.017Z,100015.00
2023-01-11T12:40:47.608Z,100014.53
2023-01-11T12:43:33.322Z,100010.95
2023-01-11T12:46:30.418Z,100007.85
2023-01-11T12:49:23.689Z,100001.27
2023-01-11T12:52:01.824Z,99996.85
2023-01-11T12:55:01.918Z,99989.97
2023-01-11T12:58:14.108Z,99982.96
2023-01-11T13:01:13.085Z,99978.38
2023-01-11T13:04:21.634Z,99974.29
2023-01-11T13:16:22.139Z,99953.35
2023-01-11T13:19:15.097Z,99950.71
2023-01-11T13:22:04.771Z,99945.57
2023-01-11T13:24:53.575Z,99944.90
2023-01-11T13:36:24.058Z,99947.14
2023-01-11T13:39:10.348Z,99951.42
2023-01-11T13:41:48.636Z,99953.46
2023-01-11T13:44:31.093Z,99954.48
2023-01-11T13:47:12.829Z,99951.56
2023-01-11T13:50:23.217Z,99945.23
2023-01-11T13:53:16.464Z,99936.80
2023-01-11T13:56:03.186Z,99934.58
2023-01-11T13:58:37.719Z,99933.36
2023-01-11T14:01:14.784Z,99935.98
2023-01-11T14:03:46.239Z,99938.71
2023-01-11T14:06:17.793Z,99941.64
2023-01-11T14:09:14.047Z,99941.11
2023-01-11T14:12:40.421Z,99940.43
2023-01-11T14:15:39.519Z,99933.24
2023-01-11T14:18:21.613Z,99929.70
2023-01-11T14:21:21.780Z,99929.04
2023-01-11T14:23:53.457Z,99928.03
2023-01-11T14:26:47.130Z,99931.64
2023-01-11T14:29:48.752Z,99932.02
2023-01-11T14:32:39.273Z,99932.02
2023-01-11T14:35:08.171Z,99925.51
2023-01-11T14:37:36.704Z,99923.82
2023-01-11T14:40:35.744Z,99924.66
2023-01-11T14:43:35.224Z,99926.74
2023-01-11T14:46:22.742Z,99923.65
2023-01-11T14:49:10.789Z,99924.70
2023-01-11T14:52:03.538Z,99918.30
2023-01-11T14:54:36.736Z,99909.37
2023-01-11T14:57:05.418Z,99904.75
2023-01-11T14:59:42.733Z,99905.10
2023-01-11T15:02:11.137Z,99906.31
2023-01-11T15:04:59.493Z,99900.45
2023-01-11T15:07:30.860Z,99896.66
2023-01-11T15:10:03.416Z,99888.89
2023-01-11T15:12:38.220Z,99882.31
2023-01-11T15:15:19.035Z,99883.40
2023-01-11T15:18:15.213Z,99881.17
2023-01-11T15:21:06.949Z,99884.97
2023-01-11T15:23:49.181Z,99881.00
2023-01-11T15:26:21.588Z,99881.20
2023-01-11T15:28:58.945Z,99880.48
2023-01-11T15:31:53.369Z,99878.07
2023-01-11T15:34:28.797Z,99873.02
2023-01-11T15:37:00.306Z,99874.90
2023-01-11T15:39:54.760Z,99874.16
2023-01-11T15:42:41.625Z,99870.30
2023-01-11T15:45:32.707Z,99866.29
2023-01-11T15:48:01.621Z,99865.40
2023-01-11T15:51:06.030Z,99862.73
2023-01-11T15:53:56.813Z,99868.37
2023-01-11T15:56:47.453Z,99871.59
2023-01-11T15:59:32.709Z,99868.13
2023-01-11T16:02:36.478Z,99864.84
2023-01-11T16:05:19.991Z,99863.63
2023-01-11T16:08:18.001Z,99862.55
2023-01-11T16:11:32.899Z,99862.38
2023-01-11T16:14:34.127Z,99866.33
2023-01-11T16:17:03.304Z,99865.48
2023-01-11T16:19:40.114Z,99872.64
2023-01-11T16:22:16.874Z,99874.69
2023-01-11T16:24:48.203Z,99876.55
2023-01-11T16:27:27.251Z,99872.76
2023-01-11T16:29:56.815Z,99867.93
2023-01-11T16:32:33.857Z,99872.38
2023-01-11T16:35:03.991Z,99866.31
2023-01-11T16:37:44.265Z,99871.45
2023-01-11T16:40:21.277Z,99872.64
2023-01-11T16:42:57.815Z,99874.31
2023-01-11T16:45:47.068Z,99870.85
2023-01-11T16:48:17.400Z,99870.84
2023-01-11T16:51:01.496Z,99875.46
2023-01-11T16:53:38.925Z,99872.70
2023-01-11T16:56:17.373Z,99872.02
2023-01-11T16:59:14.851Z,99863.46
2023-01-11T17:02:05.181Z,99867.48
2023-01-11T17:04:36.123Z,99872.33
2023-01-11T17:07:21.693Z,99871.46
2023-01-11T17:09:50.296Z,99871.27
2023-01-11T17:12:27.962Z,99867.45
2023-01-11T17:15:08.706Z,99870.89
2023-01-11T17:17:38.509Z,99865.15
2023-01-11T17:20:20.444Z,99870.44
2023-01-11T17:22:54.237Z,99870.23
2023-01-11T17:25:41.045Z,99874.33
2023-01-11T17:28:20.195Z,99875.50
2023-01-11T17:30:52.648Z,99875.30
2023-01-11T17:33:32.352Z,99874.75
2023-01-11T17:36:02.934Z,99876.63
2023-01-11T17:38:31.908Z,99877.35
2023-01-11T17:41:01.535Z,99872.78
2023-01-11T17:43:49.591Z,99876.97
2023-01-11T17:46:27.135Z,99872.77
2023-01-11T17:49:00.358Z,99874.11
2023-01-11T17:51:34.397Z,99869.88
2023-01-11T17:54:02.792Z,99870.04
2023-01-11T17:56:56.538Z,99863.15
2023-01-11T17:59:30.470Z,99862.97
2023-01-11T18:02:04.352Z,99863.45
2023-01-11T18:04:32.638Z,99862.19
2023-01-11T18:07:13.240Z,99855.20
2023-01-11T18:09:57.787Z,99855.62
2023-01-11T18:12:34.236Z,99857.02
2023-01-11T18:15:06.348Z,99859.98
2023-01-11T18:17:45.094Z,99862.71
2023-01-11T18:20:17.279Z,99864.15
2023-01-11T18:22:54.710Z,99863.73
2023-01-11T18:25:28.713Z,99867.10
2023-01-11T18:28:12.409Z,99867.69
2023-01-11T18:30:46.108Z,99863.06
2023-01-11T18:33:19.856Z,99860.60
2023-01-11T18:35:52.381Z,99865.23
2023-01-11T18:38:29.190Z,99864.38
2023-01-11T18:41:00.097Z,99866.65
2023-01-11T18:43:31.464Z,99862.06
2023-01-11T18:46:00.370Z,99865.69
2023-01-11T18:48:29.676Z,99867.08
2023-01-11T18:50:59.672Z,99865.10
2023-01-11T18:53:30.540Z,99871.54
2023-01-11T18:56:02.400Z,99874.48
2023-01-11T18:58:31.673Z,99873.34
2023-01-11T19:01:01.097Z,99872.45
2023-01-11T19:03:30.871Z,99878.47
2023-01-11T19:05:59.485Z,99872.41
2023-01-11T19:08:28.864Z,99869.59
2023-01-11T19:10:58.379Z,99872.09
2023-01-11T19:13:28.276Z,99874.95
2023-01-11T19:15:57.401Z,99872.49
2023-01-11T19:18:26.337Z,99871.58
2023-01-11T19:20:55.391Z,99872.02
2023-01-11T19:26:00.545Z,99869.14
2023-01-11T19:28:30.281Z,99871.02
2023-01-11T19:31:02.497Z,99872.13
2023-01-11T19:33:33.592Z,99873.05
2023-01-11T19:36:07.281Z,99873.55
2023-01-11T19:38:37.321Z,99875.20
2023-01-11T19:41:10.058Z,99872.94
2023-01-11T19:43:45.154Z,99875.13
2023-01-11T19:46:19.472Z,99872.60
2023-01-11T19:48:57.294Z,99872.04
2023-01-11T19:51:26.069Z,99875.89
2023-01-11T19:53:58.172Z,99878.77
2023-01-11T19:56:26.950Z,99881.37
2023-01-11T19:58:57.097Z,99879.96
2023-01-11T20:01:26.261Z,99881.96
2023-01-11T20:03:55.843Z,99883.60
2023-01-11T20:06:26.001Z,99884.89
2023-01-11T20:08:55.846Z,99891.59
2023-01-11T20:11:25.373Z,99888.47
2023-01-11T20:13:54.449Z,99895.85
2023-01-11T20:16:24.654Z,99895.38
2023-01-11T20:18:59.064Z,99893.98
2023-01-11T20:21:32.985Z,99895.27
2023-01-11T20:24:03.263Z,99895.67
2023-01-11T20:26:34.400Z,99896.73
2023-01-11T20:29:06.373Z,99897.52
2023-01-11T20:31:36.055Z,99896.16
2023-01-11T20:34:11.548Z,99898.52
2023-01-11T20:36:43.306Z,99898.27
2023-01-11T20:39:13.117Z,99901.31
2023-01-11T20:41:47.859Z,99902.41
2023-01-11T20:59:47.143Z,99917.58
2023-01-11T21:02:15.642Z,99919.13
2023-01-11T21:04:44.525Z,99927.22
2023-01-11T21:07:13.594Z,99927.65
2023-01-11T21:09:41.942Z,99928.05
2023-01-11T21:12:10.347Z,99929.54
2023-01-11T21:14:38.910Z,99928.41
2023-01-11T21:17:07.397Z,99932.11
2023-01-11T21:19:35.898Z,99935.71
2023-01-11T21:22:05.308Z,99939.10
2023-01-11T21:24:33.647Z,99938.92
2023-01-11T21:27:02.707Z,99942.84
2023-01-11T21:29:31.208Z,99942.17
2023-01-11T21:31:59.928Z,99945.15
2023-01-11T21:34:28.928Z,99946.86
2023-01-11T21:36:57.845Z,99946.80
2023-01-11T21:39:27.039Z,99953.11
2023-01-11T21:41:55.585Z,99957.41
2023-01-11T21:44:34.702Z,99958.44
2023-01-11T21:47:07.053Z,99962.20
2023-01-11T21:50:01.613Z,99960.98
2023-01-11T21:52:30.103Z,99969.41
2023-01-11T21:54:58.529Z,99975.59
2023-01-11T21:57:27.088Z,99976.42
2023-01-11T21:59:55.496Z,99979.86
2023-01-11T22:02:24.588Z,99986.40
2023-01-11T22:04:57.843Z,99990.52
2023-01-11T22:07:29.677Z,99990.98
2023-01-11T22:10:04.625Z,99992.84
2023-01-11T22:12:34.197Z,99994.37
2023-01-11T22:15:02.762Z,99998.30
2023-01-11T22:17:31.300Z,99993.77
2023-01-11T22:19:59.759Z,99997.21
2023-01-11T22:22:29.398Z,99997.16
2023-01-11T22:24:58.213Z,100002.88
2023-01-11T22:27:26.572Z,100004.17
2023-01-11T22:29:55.212Z,100004.30
2023-01-11T22:32:23.604Z,100003.36
2023-01-11T22:34:52.586Z,100007.30
2023-01-11T22:37:21.522Z,100004.67
2023-01-11T22:39:50.003Z,100010.30
2023-01-11T22:42:18.407Z,100011.46
2023-01-11T22:44:47.274Z,100015.95
2023-01-11T22:47:15.715Z,100011.07
2023-01-11T22:49:47.025Z,100012.91
2023-01-11T22:52:15.414Z,100009.27
2023-01-11T22:54:44.383Z,100008.52
2023-01-11T22:57:13.455Z,100012.38
2023-01-11T22:59:41.844Z,100014.02
2023-01-11T23:02:10.406Z,100014.98
2023-01-11T23:04:39.327Z,100019.53
2023-01-11T23:07:08.257Z,100021.02
2023-01-11T23:09:36.907Z,100029.48
2023-01-11T23:12:24.633Z,100031.89
2023-01-11T23:14:53.329Z,100033.61
2023-01-11T23:17:21.807Z,100041.52
2023-01-11T23:19:50.216Z,100043.04
2023-01-11T23:22:18.591Z,100046.20
2023-01-11T23:24:47.062Z,100048.10
2023-01-11T23:27:16.141Z,100050.81
2023-01-11T23:29:45.129Z,100046.34
2023-01-11T23:32:13.554Z,100049.59
2023-01-11T23:34:41.952Z,100053.89
2023-01-11T23:37:10.374Z,100051.81
2023-01-11T23:39:38.786Z,100050.73
2023-01-11T23:42:25.915Z,100053.39
2023-01-11T23:44:58.296Z,100055.77
2023-01-11T23:47:29.995Z,100057.80
2023-01-11T23:50:23.902Z,100058.45
2023-01-11T23:52:52.332Z,100055.65
2023-01-11T23:55:21.277Z,100058.70
2023-01-11T23:58:09.303Z,100055.23
